Greenview, CA (96037)

6:49 AM PST on November 23, 2014 (GMT -0800)
KCAETNA3 | Change Station
CLOSE
Current Station
Personal Weather Station
Location: Island Rd, Scott Valley, CA
Elevation: 2728 ft
Nearby Weather Stations

Elev 2728 ft 41.55 °N, 122.85 °W | Updated 6 seconds ago

Partly Cloudy
Partly Cloudy
29.2 °F
Feels Like 29 °F
N
0.0
Wind Variable Wind from SW
Gusts 0.0 mph

Today
High -- | Low -- °F
--% Chance of Precip.
Yesterday
High -- | Low -- °F
Precip. -- in
7:10 AM 4:45 PM
New Moon, 1% visible
Pressure 30.38 in
Visibility 0.8 miles
Clouds Overcast 100 ft
Windchill 29 °F
Dew Point 29 °F
Humidity 99%
Rainfall 0.00 in
Snow Depth Not available.
UV 0 out of 12
Pollen .30 out of 12
Air Quality Not available.
Flu Activity Not available.
SPECI KSIY 231445Z AUTO 00000KT 3/4SM BR OVC001 M01/M02 A3038 RMK AO2 T10111017

More Conditions Fewer Conditions

Pressure 30.38 in
Visibility 0.8 miles
Clouds Overcast 100 ft
Windchill 29 °F
Dew Point 29 °F
Humidity 99%
Rainfall 0.00 in
Snow Depth Not available.
UV 0 out of 12
Pollen .30 out of 12
Air Quality Not available.
Flu Activity Not available.
SPECI KSIY 231445Z AUTO 00000KT 3/4SM BR OVC001 M01/M02 A3038 RMK AO2 T10111017

More Conditions Fewer Conditions

10-Day Weather Forecast

Almanac

Astronomy

Nov. 23, 2014 Rise Set
Actual Time
Civil Twilight
Nautical Twilight
Astronomical Twilight
Moon
Length of Visible Light
Length of Day
Tomorrow will be .
, % of the Moon is Illuminated

Today's Extremes

State Highs State Lows

Community

WunderPhotos

Upload Photos

1,773,078 photos uploaded!

WunderBlogs® & News

Nearby

Air Quality

  Air Quality AQ Index Pollutant
Not available.

Snow Depth

Station Depth Elevation

Earthquake Activity

City Distance Mag. Time & Date
Minimum magnitude displayed is 2.5.

Coastal Water Temperatures

Place Temperature

Nearby Weather Stations